Time;durP1;ratioP1;P1;durP2;ratioP2;P2;SDS_P1;SDS_P2;PMS_P1;PMS_P2;Temp;Humidity;BMP_temperature;BMP_pressure;BME280_temperature;BME280_humidity;BME280_pressure;Samples;Min_cycle;Max_cycle;Signal;HPM_P1;HPM_P2
2022/12/02 00:00:49;;;;;;;46.22;22.88;;;;;;;;;;5094106;28;20203;-67
2022/12/02 00:03:18;;;;;;;51.03;22.55;;;;;;;;;;5094710;28;20212;-66
2022/12/02 00:05:48;;;;;;;42.47;21.75;;;;;;;;;;5097507;28;20200;-66
2022/12/02 00:08:17;;;;;;;48.50;23.65;;;;;;;;;;5097771;28;20287;-66
2022/12/02 00:10:45;;;;;;;56.63;23.80;;;;;;;;;;5097318;28;20289;-66
2022/12/02 00:13:17;;;;;;;46.67;22.92;;;;;;;;;;5096951;28;20287;-67
2022/12/02 00:15:46;;;;;;;46.22;22.48;;;;;;;;;;5097679;28;20279;-67
2022/12/02 00:18:14;;;;;;;52.67;25.35;;;;;;;;;;5096932;28;20199;-67
2022/12/02 00:20:42;;;;;;;54.13;24.80;;;;;;;;;;5097248;28;20548;-66
2022/12/02 00:23:09;;;;;;;55.88;25.10;;;;;;;;;;5097041;28;20272;-67
2022/12/02 00:25:37;;;;;;;61.97;26.48;;;;;;;;;;5096834;28;20200;-68
2022/12/02 00:28:04;;;;;;;60.55;25.50;;;;;;;;;;5096996;28;20200;-66
2022/12/02 00:30:31;;;;;;;60.92;25.05;;;;;;;;;;5097311;28;20200;-66
2022/12/02 00:33:00;;;;;;;61.83;24.52;;;;;;;;;;5096577;28;20194;-66
2022/12/02 00:35:27;;;;;;;56.15;26.35;;;;;;;;;;5097534;28;20199;-66
2022/12/02 00:37:54;;;;;;;57.90;25.92;;;;;;;;;;5097190;28;20198;-66
2022/12/02 00:40:21;;;;;;;54.38;24.42;;;;;;;;;;5096849;28;20289;-67
2022/12/02 00:42:48;;;;;;;49.95;24.13;;;;;;;;;;5096606;28;20240;-67
2022/12/02 00:48:02;;;;;;;58.13;24.77;;;;;;;;;;5096467;28;20699;-67
2022/12/02 00:50:30;;;;;;;53.40;24.17;;;;;;;;;;5096935;28;20193;-67
2022/12/02 00:52:57;;;;;;;58.25;25.60;;;;;;;;;;5096693;28;20283;-68
2022/12/02 00:55:24;;;;;;;51.03;25.10;;;;;;;;;;5087755;28;20652;-66
2022/12/02 00:57:51;;;;;;;56.88;24.70;;;;;;;;;;5076295;28;20212;-66
2022/12/02 01:00:19;;;;;;;51.63;24.67;;;;;;;;;;5076112;28;20296;-67
2022/12/02 01:02:46;;;;;;;52.03;24.13;;;;;;;;;;5076216;28;20199;-66
2022/12/02 01:05:15;;;;;;;54.15;23.20;;;;;;;;;;5075663;28;20233;-66
2022/12/02 01:07:42;;;;;;;55.63;24.73;;;;;;;;;;5076885;28;20192;-66
2022/12/02 01:10:09;;;;;;;56.83;25.40;;;;;;;;;;5075623;28;20191;-66
2022/12/02 01:12:37;;;;;;;53.70;26.25;;;;;;;;;;5076475;28;20205;-66
2022/12/02 01:15:04;;;;;;;56.13;23.90;;;;;;;;;;5075407;28;20296;-66
2022/12/02 01:17:31;;;;;;;58.67;25.80;;;;;;;;;;5076036;28;20204;-66
2022/12/02 01:19:58;;;;;;;53.38;24.15;;;;;;;;;;5076006;28;20291;-66
2022/12/02 01:22:27;;;;;;;57.90;24.45;;;;;;;;;;5075975;28;20554;-66
2022/12/02 01:24:54;;;;;;;57.67;24.13;;;;;;;;;;5075647;28;20229;-66
2022/12/02 01:27:21;;;;;;;61.33;26.85;;;;;;;;;;5075649;28;20197;-67
2022/12/02 01:29:49;;;;;;;62.92;26.98;;;;;;;;;;5075346;28;20204;-67
2022/12/02 01:32:18;;;;;;;62.08;24.05;;;;;;;;;;5075684;28;20196;-66
2022/12/02 01:34:45;;;;;;;57.83;27.15;;;;;;;;;;5075721;28;20208;-67
2022/12/02 01:37:12;;;;;;;63.58;26.77;;;;;;;;;;5075628;28;20201;-69
2022/12/02 01:39:41;;;;;;;63.00;28.13;;;;;;;;;;5075480;28;20571;-67
2022/12/02 01:42:08;;;;;;;70.57;28.95;;;;;;;;;;5075521;28;20233;-68
2022/12/02 01:44:36;;;;;;;67.15;26.27;;;;;;;;;;5075310;28;20228;-67
2022/12/02 01:47:03;;;;;;;66.20;25.38;;;;;;;;;;5075326;28;20286;-67
2022/12/02 01:49:30;;;;;;;67.60;26.42;;;;;;;;;;5075232;28;20200;-67
2022/12/02 01:51:58;;;;;;;65.03;28.33;;;;;;;;;;5074977;28;20198;-67
2022/12/02 01:54:25;;;;;;;54.97;25.52;;;;;;;;;;5075162;28;20201;-67
2022/12/02 01:56:53;;;;;;;57.90;26.45;;;;;;;;;;5074856;28;20200;-67
2022/12/02 01:59:27;;;;;;;65.43;28.05;;;;;;;;;;5075097;28;20205;-67
2022/12/02 02:01:54;;;;;;;71.88;27.23;;;;;;;;;;5075736;28;20192;-67
2022/12/02 02:04:21;;;;;;;59.00;27.40;;;;;;;;;;5074534;28;20228;-67
2022/12/02 02:06:48;;;;;;;68.20;26.48;;;;;;;;;;5075235;28;20205;-67
2022/12/02 02:09:16;;;;;;;72.00;28.38;;;;;;;;;;5074865;28;20222;-67
2022/12/02 02:11:43;;;;;;;68.90;30.95;;;;;;;;;;5074749;28;20196;-67
2022/12/02 02:14:13;;;;;;;62.85;27.73;;;;;;;;;;5074725;28;20196;-67
2022/12/02 02:16:41;;;;;;;65.88;28.65;;;;;;;;;;5074801;28;20200;-67
2022/12/02 02:19:10;;;;;;;66.78;27.55;;;;;;;;;;5074705;28;20204;-67
2022/12/02 02:21:41;;;;;;;60.67;27.60;;;;;;;;;;5074286;28;20192;-67
2022/12/02 02:24:09;;;;;;;58.47;25.95;;;;;;;;;;5074642;28;20212;-67
2022/12/02 02:26:37;;;;;;;64.90;28.50;;;;;;;;;;5073675;28;20200;-67
2022/12/02 02:29:04;;;;;;;61.10;26.90;;;;;;;;;;5074206;28;20272;-66
2022/12/02 02:31:31;;;;;;;63.20;28.75;;;;;;;;;;5074089;28;20210;-67
2022/12/02 02:33:58;;;;;;;65.40;27.30;;;;;;;;;;5074442;28;20202;-66
2022/12/02 02:36:26;;;;;;;60.40;27.67;;;;;;;;;;5073994;28;20740;-67
2022/12/02 02:38:53;;;;;;;56.83;25.55;;;;;;;;;;5074627;28;20201;-66
2022/12/02 02:41:22;;;;;;;59.60;26.10;;;;;;;;;;5074022;28;20224;-66
2022/12/02 02:43:49;;;;;;;57.92;27.65;;;;;;;;;;5074201;28;20201;-68
2022/12/02 02:46:17;;;;;;;57.97;27.42;;;;;;;;;;5073997;28;20646;-66
2022/12/02 02:48:45;;;;;;;55.30;26.13;;;;;;;;;;5074077;28;20303;-66
2022/12/02 02:51:12;;;;;;;58.97;27.30;;;;;;;;;;5074354;28;20291;-67
2022/12/02 02:53:40;;;;;;;58.15;27.27;;;;;;;;;;5074366;28;20194;-67
2022/12/02 02:56:08;;;;;;;72.85;29.17;;;;;;;;;;5073944;28;20201;-67
2022/12/02 02:58:37;;;;;;;64.28;27.73;;;;;;;;;;5073652;28;20212;-66
2022/12/02 03:01:08;;;;;;;59.08;27.30;;;;;;;;;;5073859;28;20197;-66
2022/12/02 03:03:36;;;;;;;71.65;26.42;;;;;;;;;;5074135;28;20276;-66
2022/12/02 03:06:06;;;;;;;77.38;28.98;;;;;;;;;;5073425;28;20223;-68
2022/12/02 03:08:33;;;;;;;76.05;30.42;;;;;;;;;;5073575;28;20287;-67
2022/12/02 03:11:01;;;;;;;78.35;28.17;;;;;;;;;;5073693;28;20193;-66
2022/12/02 03:13:30;;;;;;;68.90;29.23;;;;;;;;;;5074115;28;20193;-67
2022/12/02 03:15:59;;;;;;;70.13;27.65;;;;;;;;;;5073656;28;20212;-67
2022/12/02 03:18:26;;;;;;;67.90;28.73;;;;;;;;;;5073728;28;20197;-66
2022/12/02 03:20:54;;;;;;;79.00;28.63;;;;;;;;;;5073563;28;20195;-67
2022/12/02 03:23:21;;;;;;;62.42;25.45;;;;;;;;;;5073947;28;20208;-67
2022/12/02 03:25:48;;;;;;;65.13;27.13;;;;;;;;;;5073459;28;20219;-67
2022/12/02 03:28:16;;;;;;;69.70;27.17;;;;;;;;;;5074235;28;20192;-67
2022/12/02 03:30:43;;;;;;;69.65;25.80;;;;;;;;;;5073175;28;20195;-67
2022/12/02 03:33:12;;;;;;;68.07;25.17;;;;;;;;;;5073493;28;20200;-66
2022/12/02 03:35:39;;;;;;;67.15;25.65;;;;;;;;;;5073147;28;20654;-67
2022/12/02 03:38:06;;;;;;;70.88;28.17;;;;;;;;;;5073336;28;20203;-67
2022/12/02 03:40:33;;;;;;;63.63;25.38;;;;;;;;;;5073034;28;20200;-67
2022/12/02 03:43:01;;;;;;;59.58;24.58;;;;;;;;;;5073277;28;20186;-67
2022/12/02 03:45:28;;;;;;;77.00;28.63;;;;;;;;;;5072968;28;20224;-67
2022/12/02 03:47:55;;;;;;;67.18;26.80;;;;;;;;;;5073376;28;20226;-67
2022/12/02 03:50:24;;;;;;;75.10;26.92;;;;;;;;;;5073534;28;20215;-66
2022/12/02 03:52:51;;;;;;;65.30;25.48;;;;;;;;;;5073357;28;20202;-67
2022/12/02 03:55:18;;;;;;;69.00;28.63;;;;;;;;;;5073027;28;20239;-67
2022/12/02 03:57:46;;;;;;;79.85;28.42;;;;;;;;;;5073145;28;20197;-66
2022/12/02 04:00:13;;;;;;;55.05;25.67;;;;;;;;;;5072959;28;20199;-67
2022/12/02 04:02:41;;;;;;;58.90;27.20;;;;;;;;;;5073151;28;20194;-67
2022/12/02 04:05:08;;;;;;;73.65;26.25;;;;;;;;;;5072911;28;20221;-67
2022/12/02 04:07:37;;;;;;;66.88;26.67;;;;;;;;;;5073185;28;20196;-66
2022/12/02 04:10:04;;;;;;;73.78;25.02;;;;;;;;;;5073200;28;20577;-66
2022/12/02 04:12:32;;;;;;;77.80;27.95;;;;;;;;;;5072685;28;20236;-66
2022/12/02 04:14:59;;;;;;;82.05;30.75;;;;;;;;;;5073098;28;20199;-66
2022/12/02 04:17:26;;;;;;;64.55;27.80;;;;;;;;;;5072984;28;20194;-66
2022/12/02 04:19:54;;;;;;;70.65;26.33;;;;;;;;;;5072841;28;20193;-66
2022/12/02 04:22:21;;;;;;;61.08;24.60;;;;;;;;;;5072741;28;20819;-66
2022/12/02 04:24:50;;;;;;;71.75;26.50;;;;;;;;;;5072974;28;20311;-66
2022/12/02 04:27:17;;;;;;;69.40;24.55;;;;;;;;;;5073103;28;20242;-66
2022/12/02 04:29:44;;;;;;;63.50;24.80;;;;;;;;;;5072656;28;20197;-66
2022/12/02 04:32:11;;;;;;;63.70;26.10;;;;;;;;;;5073236;28;20287;-67
2022/12/02 04:34:39;;;;;;;62.03;28.00;;;;;;;;;;5072635;28;20239;-66
2022/12/02 04:37:06;;;;;;;60.85;25.20;;;;;;;;;;5072549;28;20679;-67
2022/12/02 04:39:33;;;;;;;66.75;27.08;;;;;;;;;;5073034;28;20224;-67
2022/12/02 04:42:01;;;;;;;56.15;25.05;;;;;;;;;;5072310;28;20229;-67
2022/12/02 04:44:29;;;;;;;65.30;27.15;;;;;;;;;;5072483;28;20295;-67
2022/12/02 04:46:56;;;;;;;63.20;26.58;;;;;;;;;;5072609;28;20681;-66
2022/12/02 04:49:23;;;;;;;62.20;27.65;;;;;;;;;;5074319;28;20197;-67
2022/12/02 04:51:50;;;;;;;58.42;25.88;;;;;;;;;;5076039;28;20202;-66
2022/12/02 04:54:17;;;;;;;56.60;24.60;;;;;;;;;;5076092;28;20212;-66
2022/12/02 04:56:44;;;;;;;56.85;24.67;;;;;;;;;;5075397;28;20621;-66
2022/12/02 04:59:13;;;;;;;51.05;22.35;;;;;;;;;;5075478;28;20217;-67
2022/12/02 05:01:40;;;;;;;59.33;23.77;;;;;;;;;;5074962;28;20305;-66
2022/12/02 05:04:07;;;;;;;67.28;24.85;;;;;;;;;;5075569;28;20676;-66
2022/12/02 05:06:34;;;;;;;47.42;24.92;;;;;;;;;;5075064;28;20715;-66
2022/12/02 05:09:02;;;;;;;58.75;24.05;;;;;;;;;;5074840;28;20572;-66
2022/12/02 05:11:29;;;;;;;57.38;24.20;;;;;;;;;;5075679;28;20196;-66
2022/12/02 05:13:56;;;;;;;56.33;23.17;;;;;;;;;;5075006;28;20197;-67
2022/12/02 05:16:24;;;;;;;60.55;26.95;;;;;;;;;;5075125;28;20199;-66
2022/12/02 05:18:52;;;;;;;56.92;25.17;;;;;;;;;;5075447;28;20552;-65
2022/12/02 05:21:19;;;;;;;63.28;25.48;;;;;;;;;;5075184;28;20219;-67
2022/12/02 05:23:46;;;;;;;61.53;25.75;;;;;;;;;;5075271;28;20208;-66
2022/12/02 05:26:13;;;;;;;66.22;24.67;;;;;;;;;;5086588;28;20254;-66
2022/12/02 05:28:40;;;;;;;53.95;21.23;;;;;;;;;;5095105;28;20624;-67
2022/12/02 05:31:08;;;;;;;69.15;25.30;;;;;;;;;;5095848;28;20301;-66
2022/12/02 05:33:36;;;;;;;61.72;23.55;;;;;;;;;;5095648;28;20287;-66
2022/12/02 05:36:03;;;;;;;54.92;23.50;;;;;;;;;;5095303;28;20205;-66
2022/12/02 05:38:30;;;;;;;54.17;23.10;;;;;;;;;;5095343;28;20679;-66
2022/12/02 05:40:58;;;;;;;64.35;24.20;;;;;;;;;;5095334;28;20681;-66
2022/12/02 05:43:26;;;;;;;55.40;25.98;;;;;;;;;;5095221;28;20291;-66
2022/12/02 05:45:53;;;;;;;48.67;21.85;;;;;;;;;;5094892;28;20219;-66
2022/12/02 05:48:20;;;;;;;66.55;27.23;;;;;;;;;;5094796;28;20564;-66
2022/12/02 05:50:49;;;;;;;57.10;24.05;;;;;;;;;;5094835;28;20195;-66
2022/12/02 05:53:22;;;;;;;47.53;22.08;;;;;;;;;;5095224;28;20561;-66
2022/12/02 05:55:49;;;;;;;47.67;24.13;;;;;;;;;;5095312;28;20199;-67
2022/12/02 05:58:17;;;;;;;50.15;23.52;;;;;;;;;;5095244;28;20201;-66
2022/12/02 06:00:45;;;;;;;50.28;22.63;;;;;;;;;;5095299;28;20201;-66
2022/12/02 06:03:17;;;;;;;58.88;24.20;;;;;;;;;;5094920;28;20656;-66
2022/12/02 06:05:45;;;;;;;50.90;23.17;;;;;;;;;;5095204;28;20230;-67
2022/12/02 06:08:15;;;;;;;53.17;23.50;;;;;;;;;;5095264;28;20222;-67
2022/12/02 06:10:44;;;;;;;57.20;21.60;;;;;;;;;;5094903;28;20214;-66
2022/12/02 06:13:14;;;;;;;52.28;25.92;;;;;;;;;;5094984;28;20198;-67
2022/12/02 06:15:42;;;;;;;66.40;24.33;;;;;;;;;;5095122;28;20192;-75
2022/12/02 06:18:14;;;;;;;43.83;23.30;;;;;;;;;;5094943;28;20197;-67
2022/12/02 06:20:41;;;;;;;56.78;20.83;;;;;;;;;;5095198;28;20192;-67
2022/12/02 06:23:10;;;;;;;52.10;25.00;;;;;;;;;;5094541;28;20203;-68
2022/12/02 06:25:39;;;;;;;60.25;25.73;;;;;;;;;;5094506;28;20212;-68
2022/12/02 06:28:11;;;;;;;55.90;24.67;;;;;;;;;;5094445;28;20201;-67
2022/12/02 06:30:38;;;;;;;54.13;23.45;;;;;;;;;;5094488;28;20191;-67
2022/12/02 06:33:06;;;;;;;53.90;22.40;;;;;;;;;;5094992;28;20196;-67
2022/12/02 06:35:33;;;;;;;57.00;22.58;;;;;;;;;;5094540;28;20196;-68
2022/12/02 06:38:02;;;;;;;57.83;24.33;;;;;;;;;;5094875;28;20199;-68
2022/12/02 06:40:30;;;;;;;53.63;24.08;;;;;;;;;;5093989;28;20725;-67
2022/12/02 06:43:00;;;;;;;88.43;38.58;;;;;;;;;;5094924;28;20195;-68
2022/12/02 06:45:29;;;;;;;61.70;24.27;;;;;;;;;;5094877;28;20577;-69
2022/12/02 06:48:01;;;;;;;55.97;25.95;;;;;;;;;;5094276;28;20204;-68
2022/12/02 06:50:30;;;;;;;50.45;22.13;;;;;;;;;;5094700;28;20541;-68
2022/12/02 06:53:08;;;;;;;63.80;24.85;;;;;;;;;;5094021;28;20675;-68
2022/12/02 06:55:37;;;;;;;58.13;23.70;;;;;;;;;;5094108;28;20213;-68
2022/12/02 06:58:24;;;;;;;66.60;23.30;;;;;;;;;;5093891;28;20203;-67
2022/12/02 07:00:52;;;;;;;62.85;24.70;;;;;;;;;;5093958;28;20191;-68
2022/12/02 07:03:26;;;;;;;61.95;26.55;;;;;;;;;;5094093;28;20294;-68
2022/12/02 07:05:53;;;;;;;63.40;27.08;;;;;;;;;;5093800;28;20212;-67
2022/12/02 07:08:20;;;;;;;60.97;25.88;;;;;;;;;;5094442;28;20562;-68
2022/12/02 07:10:49;;;;;;;60.85;26.17;;;;;;;;;;5094400;28;20192;-68
2022/12/02 07:13:19;;;;;;;65.07;27.42;;;;;;;;;;5093488;28;20196;-67
2022/12/02 07:15:46;;;;;;;62.42;24.92;;;;;;;;;;5093915;28;20197;-68
2022/12/02 07:18:17;;;;;;;65.00;24.38;;;;;;;;;;5093866;28;20197;-67
2022/12/02 07:20:45;;;;;;;53.90;24.83;;;;;;;;;;5094207;28;20195;-67
2022/12/02 07:23:16;;;;;;;53.63;24.30;;;;;;;;;;5094015;28;20645;-68
2022/12/02 07:25:44;;;;;;;59.17;25.60;;;;;;;;;;5093845;28;20580;-67
2022/12/02 07:28:21;;;;;;;47.85;25.08;;;;;;;;;;5093565;28;20202;-68
2022/12/02 07:30:52;;;;;;;53.80;24.10;;;;;;;;;;5094244;28;20530;-68
2022/12/02 07:33:20;;;;;;;54.45;24.13;;;;;;;;;;5094252;28;20192;-68
2022/12/02 07:35:47;;;;;;;48.60;22.40;;;;;;;;;;5093367;28;20200;-67
2022/12/02 07:38:15;;;;;;;58.97;24.98;;;;;;;;;;5093925;28;20196;-68
2022/12/02 07:40:42;;;;;;;54.05;23.48;;;;;;;;;;5093000;28;20670;-68
2022/12/02 07:43:10;;;;;;;50.00;23.88;;;;;;;;;;5093757;28;20184;-68
2022/12/02 07:45:37;;;;;;;46.83;21.80;;;;;;;;;;5093433;28;20254;-68
2022/12/02 07:48:04;;;;;;;58.40;24.65;;;;;;;;;;5093916;28;20200;-68
2022/12/02 07:50:33;;;;;;;50.03;25.25;;;;;;;;;;5093142;28;20201;-68
2022/12/02 07:53:00;;;;;;;48.53;23.45;;;;;;;;;;5093512;28;20327;-68
2022/12/02 07:55:27;;;;;;;53.42;24.05;;;;;;;;;;5093446;28;20203;-67
2022/12/02 07:57:54;;;;;;;42.95;22.25;;;;;;;;;;5093154;28;20192;-69
2022/12/02 08:00:22;;;;;;;45.67;21.23;;;;;;;;;;5093349;28;20218;-67
2022/12/02 08:02:49;;;;;;;51.05;24.30;;;;;;;;;;5093593;28;20230;-67
2022/12/02 08:05:17;;;;;;;46.08;20.67;;;;;;;;;;5092933;28;20203;-69
2022/12/02 08:07:45;;;;;;;54.42;23.45;;;;;;;;;;5093377;28;20199;-67
2022/12/02 08:10:13;;;;;;;40.53;20.23;;;;;;;;;;5093556;28;20197;-68
2022/12/02 08:12:41;;;;;;;41.90;22.00;;;;;;;;;;5093654;28;20203;-68
2022/12/02 08:15:09;;;;;;;46.30;22.33;;;;;;;;;;5092939;28;20204;-68
2022/12/02 08:17:36;;;;;;;46.85;23.10;;;;;;;;;;5092891;28;20203;-68
2022/12/02 08:20:04;;;;;;;41.28;23.92;;;;;;;;;;5092842;28;20202;-67
2022/12/02 08:22:31;;;;;;;34.78;19.13;;;;;;;;;;5093277;28;20200;-68
2022/12/02 08:25:00;;;;;;;45.45;22.85;;;;;;;;;;5095739;28;20207;-68
2022/12/02 08:27:27;;;;;;;42.10;23.02;;;;;;;;;;5096792;28;20223;-67
2022/12/02 08:29:54;;;;;;;41.20;21.52;;;;;;;;;;5096687;28;20287;-67
2022/12/02 08:32:22;;;;;;;38.00;21.45;;;;;;;;;;5097005;28;20207;-67
2022/12/02 08:34:49;;;;;;;37.78;21.85;;;;;;;;;;5096907;28;20205;-67
2022/12/02 08:37:16;;;;;;;42.78;21.38;;;;;;;;;;5096934;28;20194;-68
2022/12/02 08:39:43;;;;;;;36.78;20.48;;;;;;;;;;5097012;28;20449;-67
2022/12/02 08:42:12;;;;;;;43.45;20.88;;;;;;;;;;5096398;28;20584;-67
2022/12/02 08:44:39;;;;;;;42.90;21.33;;;;;;;;;;5096431;28;20202;-67
2022/12/02 08:47:06;;;;;;;46.72;24.67;;;;;;;;;;5096713;28;20566;-67
2022/12/02 08:49:33;;;;;;;50.05;22.45;;;;;;;;;;5096668;28;20287;-68
2022/12/02 08:52:01;;;;;;;45.47;20.70;;;;;;;;;;5096734;28;20204;-67
2022/12/02 08:54:28;;;;;;;46.70;23.30;;;;;;;;;;5096417;28;20726;-67
2022/12/02 08:56:55;;;;;;;46.63;22.83;;;;;;;;;;5096557;28;20567;-68
2022/12/02 08:59:24;;;;;;;40.28;21.42;;;;;;;;;;5096264;28;20195;-68
2022/12/02 09:01:51;;;;;;;41.35;21.60;;;;;;;;;;5096420;28;20207;-68
2022/12/02 09:04:18;;;;;;;47.85;22.50;;;;;;;;;;5095536;28;20203;-68
2022/12/02 09:06:46;;;;;;;42.83;21.90;;;;;;;;;;5096414;28;20307;-67
2022/12/02 09:09:13;;;;;;;37.58;21.00;;;;;;;;;;5096430;28;20192;-68
2022/12/02 09:11:41;;;;;;;49.15;22.50;;;;;;;;;;5096094;28;20261;-68
2022/12/02 09:14:08;;;;;;;53.55;24.17;;;;;;;;;;5096224;28;20203;-69
2022/12/02 09:16:37;;;;;;;47.50;23.20;;;;;;;;;;5096072;28;20666;-68
2022/12/02 09:19:04;;;;;;;53.50;23.60;;;;;;;;;;5096358;28;20235;-67
2022/12/02 09:21:31;;;;;;;46.40;22.02;;;;;;;;;;5096087;28;20192;-67
2022/12/02 09:23:58;;;;;;;45.67;24.35;;;;;;;;;;5095975;28;20657;-68
2022/12/02 09:26:26;;;;;;;51.60;25.67;;;;;;;;;;5095840;28;20216;-68
2022/12/02 09:28:53;;;;;;;52.92;24.67;;;;;;;;;;5096022;28;20199;-68
2022/12/02 09:31:20;;;;;;;55.85;25.40;;;;;;;;;;5095548;28;20197;-68
2022/12/02 09:33:48;;;;;;;45.70;25.52;;;;;;;;;;5096131;28;20651;-67
2022/12/02 09:36:16;;;;;;;54.65;26.13;;;;;;;;;;5095423;28;20198;-68
2022/12/02 09:38:43;;;;;;;51.05;24.65;;;;;;;;;;5095525;28;20211;-68
2022/12/02 09:41:10;;;;;;;50.33;24.83;;;;;;;;;;5095181;28;20709;-69
2022/12/02 09:43:37;;;;;;;55.05;23.88;;;;;;;;;;5095480;28;20198;-67
2022/12/02 09:46:05;;;;;;;51.65;25.75;;;;;;;;;;5095497;28;20229;-67
2022/12/02 09:48:33;;;;;;;47.35;24.70;;;;;;;;;;5095966;28;20561;-67
2022/12/02 09:51:01;;;;;;;60.88;26.10;;;;;;;;;;5095518;28;20200;-68
2022/12/02 09:53:30;;;;;;;60.53;27.02;;;;;;;;;;5095520;28;20198;-67
2022/12/02 09:55:57;;;;;;;60.28;26.90;;;;;;;;;;5095355;28;20196;-67
2022/12/02 09:58:24;;;;;;;71.18;28.15;;;;;;;;;;5095056;28;20203;-67
2022/12/02 10:00:52;;;;;;;72.25;29.60;;;;;;;;;;5095214;28;20200;-67
2022/12/02 10:03:22;;;;;;;76.13;28.25;;;;;;;;;;5095013;28;20667;-68
2022/12/02 10:05:50;;;;;;;70.20;26.73;;;;;;;;;;5095430;28;20185;-67
2022/12/02 10:08:20;;;;;;;65.13;26.80;;;;;;;;;;5094950;28;20205;-68
2022/12/02 10:10:48;;;;;;;54.45;25.92;;;;;;;;;;5094857;28;20203;-67
2022/12/02 10:13:16;;;;;;;62.85;28.25;;;;;;;;;;5095323;28;20284;-67
2022/12/02 10:15:43;;;;;;;62.78;27.15;;;;;;;;;;5095099;28;20287;-67
2022/12/02 10:18:14;;;;;;;62.03;27.42;;;;;;;;;;5095062;28;20283;-67
2022/12/02 10:20:41;;;;;;;69.47;28.88;;;;;;;;;;5095649;28;20249;-67
2022/12/02 10:23:09;;;;;;;67.53;30.83;;;;;;;;;;5094619;28;20199;-67
2022/12/02 10:25:38;;;;;;;89.07;33.65;;;;;;;;;;5094827;28;20227;-67
2022/12/02 10:28:18;;;;;;;60.72;27.67;;;;;;;;;;5094403;28;20219;-68
2022/12/02 10:30:49;;;;;;;57.15;27.92;;;;;;;;;;5095218;28;20195;-67
2022/12/02 10:33:16;;;;;;;69.13;31.63;;;;;;;;;;5094460;28;20279;-67
2022/12/02 10:35:44;;;;;;;64.93;28.50;;;;;;;;;;5095382;28;20628;-67
2022/12/02 10:38:28;;;;;;;71.35;31.80;;;;;;;;;;5094624;28;20291;-67
2022/12/02 10:41:11;;;;;;;72.22;31.50;;;;;;;;;;5094393;28;20645;-67
2022/12/02 10:43:38;;;;;;;64.60;30.90;;;;;;;;;;5094355;28;20205;-68
2022/12/02 10:46:06;;;;;;;69.47;28.73;;;;;;;;;;5093963;28;20538;-67
2022/12/02 10:48:34;;;;;;;71.60;30.70;;;;;;;;;;5094395;28;20276;-67
2022/12/02 10:51:01;;;;;;;66.93;28.27;;;;;;;;;;5094179;28;20200;-67
2022/12/02 10:53:30;;;;;;;68.85;30.05;;;;;;;;;;5094281;28;20234;-67
2022/12/02 10:55:58;;;;;;;71.07;28.95;;;;;;;;;;5094375;28;20204;-69
2022/12/02 10:58:27;;;;;;;67.97;29.92;;;;;;;;;;5094219;28;20193;-68
2022/12/02 11:00:55;;;;;;;72.28;30.00;;;;;;;;;;5093990;28;20204;-68
2022/12/02 11:03:22;;;;;;;69.10;28.48;;;;;;;;;;5093784;28;20291;-68
2022/12/02 11:05:50;;;;;;;67.57;32.33;;;;;;;;;;5094766;28;20251;-68
2022/12/02 11:08:19;;;;;;;66.63;27.58;;;;;;;;;;5093683;28;20658;-67
2022/12/02 11:10:47;;;;;;;66.35;33.30;;;;;;;;;;5093977;28;20199;-67
2022/12/02 11:13:48;;;;;;;83.70;32.40;;;;;;;;;;5094010;28;20200;-68
2022/12/02 11:16:34;;;;;;;81.28;31.50;;;;;;;;;;5093890;28;20213;-67
2022/12/02 11:19:04;;;;;;;74.20;31.70;;;;;;;;;;5094017;28;20288;-67
2022/12/02 11:21:36;;;;;;;69.25;34.33;;;;;;;;;;5093890;28;20196;-67
2022/12/02 11:24:27;;;;;;;70.82;31.90;;;;;;;;;;5093789;28;20278;-68
2022/12/02 11:27:08;;;;;;;73.38;31.60;;;;;;;;;;5093741;28;20225;-68
2022/12/02 11:29:37;;;;;;;73.20;31.40;;;;;;;;;;5093480;28;20673;-68
2022/12/02 11:32:16;;;;;;;60.45;30.35;;;;;;;;;;5093596;28;20208;-67
2022/12/02 11:34:45;;;;;;;64.18;31.85;;;;;;;;;;5093857;28;20196;-68
2022/12/02 11:37:32;;;;;;;68.22;32.13;;;;;;;;;;5093754;28;20204;-68
2022/12/02 11:40:00;;;;;;;70.95;32.90;;;;;;;;;;5093660;28;20204;-68
2022/12/02 11:42:28;;;;;;;75.05;32.72;;;;;;;;;;5094332;28;20673;-67
2022/12/02 11:45:11;;;;;;;67.47;31.33;;;;;;;;;;5094078;28;20196;-67
2022/12/02 11:47:38;;;;;;;69.60;31.10;;;;;;;;;;5093602;28;20687;-67
2022/12/02 11:50:18;;;;;;;69.40;32.13;;;;;;;;;;5094089;28;20287;-67
2022/12/02 11:52:50;;;;;;;68.72;31.15;;;;;;;;;;5093547;28;20267;-68
2022/12/02 11:55:19;;;;;;;69.50;33.58;;;;;;;;;;5093889;28;20561;-67
2022/12/02 11:57:48;;;;;;;79.22;34.35;;;;;;;;;;5094243;28;20223;-67
2022/12/02 12:00:24;;;;;;;68.55;31.02;;;;;;;;;;5097911;28;20197;-68
2022/12/02 12:03:06;;;;;;;67.90;30.77;;;;;;;;;;5097686;28;20182;-68
2022/12/02 12:05:33;;;;;;;67.35;33.40;;;;;;;;;;5095525;28;20201;-67
2022/12/02 12:08:01;;;;;;;63.88;30.08;;;;;;;;;;5097423;28;20224;-67
2022/12/02 12:10:29;;;;;;;57.80;31.48;;;;;;;;;;5097070;28;20291;-68
2022/12/02 12:13:15;;;;;;;66.47;33.00;;;;;;;;;;5097420;28;20194;-67
2022/12/02 12:15:50;;;;;;;70.47;33.80;;;;;;;;;;5097047;28;20207;-68
2022/12/02 12:18:32;;;;;;;68.45;30.75;;;;;;;;;;5097274;28;20231;-67
2022/12/02 12:20:59;;;;;;;57.03;29.80;;;;;;;;;;5097452;28;20201;-67
2022/12/02 12:23:30;;;;;;;69.15;35.38;;;;;;;;;;5096840;28;20202;-67
2022/12/02 12:25:57;;;;;;;68.57;30.30;;;;;;;;;;5097185;28;20632;-68
2022/12/02 12:28:25;;;;;;;65.20;30.58;;;;;;;;;;5096986;28;20252;-68
2022/12/02 12:30:54;;;;;;;68.63;33.70;;;;;;;;;;5097664;28;20191;-67
2022/12/02 12:33:21;;;;;;;68.00;33.10;;;;;;;;;;5097198;28;20296;-67
2022/12/02 12:35:48;;;;;;;73.85;31.95;;;;;;;;;;5096661;28;20196;-67
2022/12/02 12:38:15;;;;;;;58.80;29.58;;;;;;;;;;5097420;28;20551;-67
2022/12/02 12:40:43;;;;;;;60.45;30.15;;;;;;;;;;5096820;28;20192;-67
2022/12/02 12:43:10;;;;;;;64.80;31.00;;;;;;;;;;5096916;28;20601;-67
2022/12/02 12:45:37;;;;;;;62.45;31.20;;;;;;;;;;5096840;28;20199;-67
2022/12/02 12:48:06;;;;;;;61.28;31.20;;;;;;;;;;5097133;28;20221;-67
2022/12/02 12:50:33;;;;;;;66.32;32.60;;;;;;;;;;5097100;28;20288;-68
2022/12/02 12:53:00;;;;;;;56.53;27.80;;;;;;;;;;5096896;28;20291;-67
2022/12/02 12:55:27;;;;;;;69.97;30.88;;;;;;;;;;5096370;28;20657;-67
2022/12/02 12:57:54;;;;;;;57.70;30.33;;;;;;;;;;5096779;28;20196;-67
2022/12/02 13:00:22;;;;;;;62.65;30.70;;;;;;;;;;5096193;28;20295;-68
2022/12/02 13:02:49;;;;;;;67.97;29.25;;;;;;;;;;5096164;28;20192;-67
2022/12/02 13:05:18;;;;;;;72.00;32.00;;;;;;;;;;5096139;28;20199;-67
2022/12/02 13:07:45;;;;;;;58.13;28.80;;;;;;;;;;5096370;28;20227;-68
2022/12/02 13:10:12;;;;;;;67.50;31.85;;;;;;;;;;5095651;28;20307;-67
2022/12/02 13:12:40;;;;;;;58.95;29.40;;;;;;;;;;5096021;28;20200;-68
2022/12/02 13:15:07;;;;;;;61.70;29.30;;;;;;;;;;5095976;28;20195;-68
2022/12/02 13:17:34;;;;;;;64.85;30.27;;;;;;;;;;5096316;28;20196;-67
2022/12/02 13:20:02;;;;;;;50.47;27.20;;;;;;;;;;5095805;28;20206;-68
2022/12/02 13:22:30;;;;;;;54.33;26.83;;;;;;;;;;5096272;28;20192;-67
2022/12/02 13:24:57;;;;;;;61.85;29.42;;;;;;;;;;5096174;28;20226;-67
2022/12/02 13:27:25;;;;;;;54.00;27.95;;;;;;;;;;5096299;28;20236;-67
2022/12/02 13:29:52;;;;;;;53.90;30.17;;;;;;;;;;5095748;28;20193;-67
2022/12/02 13:32:19;;;;;;;57.63;29.48;;;;;;;;;;5095727;28;20202;-68
2022/12/02 13:34:46;;;;;;;56.42;27.42;;;;;;;;;;5095841;28;20557;-68
2022/12/02 13:37:13;;;;;;;59.80;29.77;;;;;;;;;;5095891;28;20199;-67
2022/12/02 13:39:42;;;;;;;55.53;27.95;;;;;;;;;;5095779;28;20204;-68
2022/12/02 13:42:09;;;;;;;45.95;23.92;;;;;;;;;;5096040;28;20253;-67
2022/12/02 13:44:37;;;;;;;44.47;25.27;;;;;;;;;;5096206;28;20196;-67
2022/12/02 13:47:04;;;;;;;50.38;27.13;;;;;;;;;;5096202;28;20198;-67
2022/12/02 13:49:31;;;;;;;47.13;25.65;;;;;;;;;;5095214;28;20202;-68
2022/12/02 13:51:59;;;;;;;48.40;28.38;;;;;;;;;;5095621;28;20206;-67
2022/12/02 13:54:26;;;;;;;47.47;25.33;;;;;;;;;;5095542;28;20547;-72
2022/12/02 13:56:55;;;;;;;44.88;26.48;;;;;;;;;;5095182;28;20199;-68
2022/12/02 13:59:22;;;;;;;46.30;25.52;;;;;;;;;;5095105;28;20202;-67
2022/12/02 14:01:49;;;;;;;54.97;26.35;;;;;;;;;;5095381;28;20203;-66
2022/12/02 14:04:18;;;;;;;47.58;28.05;;;;;;;;;;5095228;28;20292;-67
2022/12/02 14:06:45;;;;;;;50.95;27.58;;;;;;;;;;5095058;28;20245;-67
2022/12/02 14:09:13;;;;;;;45.00;24.65;;;;;;;;;;5095092;28;20313;-67
2022/12/02 14:11:40;;;;;;;46.88;26.20;;;;;;;;;;5095528;28;20548;-67
2022/12/02 14:14:08;;;;;;;47.50;26.75;;;;;;;;;;5094687;28;20203;-67
2022/12/02 14:16:36;;;;;;;51.20;28.58;;;;;;;;;;5087751;28;20193;-67
2022/12/02 14:19:03;;;;;;;49.10;26.63;;;;;;;;;;5073279;28;20201;-67
2022/12/02 14:21:30;;;;;;;45.42;25.48;;;;;;;;;;5072899;28;20197;-67
2022/12/02 14:23:57;;;;;;;49.88;26.60;;;;;;;;;;5073384;28;20197;-67
2022/12/02 14:26:25;;;;;;;47.20;26.73;;;;;;;;;;5073879;28;20193;-67